Schneifelwetter: Wetterstation Hallschlag, 537 m . NN
Wetterdaten: Montag, 05.11.2012
Datum Zeit Temp. A. Feuchte A. Luftdruck Regen Wind Richtung Richtung Sonnenschein T Regen Taupunkt Windchill
05.11.2012 00:09 3,9 C 94 % 997 hPa 0,0 l/m 23,1 km/h (4 Bft) SW45 235 0 min 0 min 3,0 C -5,8 C
05.11.2012 00:24 4,0 C 93 % 997 hPa 0,0 l/m 35,0 km/h (5 Bft) SW67.5 235 0 min 0 min 3,0 C -9,0 C
05.11.2012 00:39 4,0 C 93 % 998 hPa 0,0 l/m 36,9 km/h (5 Bft) SW45 235 0 min 0 min 3,0 C -9,4 C
05.11.2012 00:54 3,9 C 93 % 998 hPa 0,0 l/m 31,1 km/h (5 Bft) W-SW45 245 0 min 0 min 2,9 C -8,2 C
05.11.2012 01:09 3,9 C 93 % 998 hPa 0,0 l/m 37,2 km/h (5 Bft) SW67.5 235 0 min 0 min 2,9 C -9,6 C
05.11.2012 01:24 3,9 C 93 % 998 hPa 0,0 l/m 35,5 km/h (5 Bft) SW45 235 0 min 0 min 2,9 C -9,3 C
05.11.2012 01:39 3,9 C 94 % 998 hPa 0,0 l/m 35,4 km/h (5 Bft) SW45 230 0 min 0 min 3,0 C -9,2 C
05.11.2012 01:54 3,9 C 94 % 998 hPa 0,0 l/m 32,0 km/h (5 Bft) W-SW45 245 0 min 0 min 3,0 C -8,4 C
05.11.2012 02:09 3,9 C 94 % 998 hPa 0,0 l/m 35,5 km/h (5 Bft) W-SW45 245 0 min 0 min 3,0 C -9,3 C
05.11.2012 02:24 3,9 C 94 % 998 hPa 0,0 l/m 34,4 km/h (5 Bft) SW45 235 0 min 0 min 3,0 C -9,0 C
05.11.2012 02:39 3,9 C 94 % 998 hPa 0,0 l/m 32,0 km/h (5 Bft) SW45 225 0 min 0 min 3,0 C -8,4 C
05.11.2012 02:54 3,9 C 95 % 998 hPa 0,0 l/m 32,5 km/h (5 Bft) SW45 235 0 min 0 min 3,2 C -8,6 C
05.11.2012 03:09 3,9 C 95 % 998 hPa 0,0 l/m 33,9 km/h (5 Bft) SW45 230 0 min 0 min 3,2 C -8,9 C
05.11.2012 03:24 3,9 C 95 % 998 hPa 0,0 l/m 29,9 km/h (5 Bft) W-SW45 245 0 min 0 min 3,2 C -7,9 C
05.11.2012 03:39 3,9 C 96 % 998 hPa 0,0 l/m 34,9 km/h (5 Bft) SW45 235 0 min 0 min 3,3 C -9,1 C
05.11.2012 03:54 4,0 C 96 % 997 hPa 0,0 l/m 31,2 km/h (5 Bft) W-SW22.5 240 0 min 0 min 3,4 C -8,1 C
05.11.2012 04:09 4,0 C 96 % 997 hPa 0,0 l/m 30,2 km/h (5 Bft) SW22.5 225 0 min 0 min 3,4 C -7,8 C
05.11.2012 04:24 4,0 C 96 % 998 hPa 0,0 l/m 30,5 km/h (5 Bft) W-SW45 255 0 min 0 min 3,4 C -7,9 C
05.11.2012 04:39 4,0 C 96 % 998 hPa 0,0 l/m 28,6 km/h (4 Bft) W-SW22.5 250 0 min 0 min 3,4 C -7,4 C
05.11.2012 04:54 4,1 C 96 % 998 hPa 0,0 l/m 37,2 km/h (5 Bft) W-SW45 245 0 min 0 min 3,5 C -9,3 C
05.11.2012 05:09 4,1 C 96 % 998 hPa 0,0 l/m 24,6 km/h (4 Bft) W-SW45 250 0 min 0 min 3,5 C -6,0 C
05.11.2012 05:24 4,1 C 96 % 998 hPa 0,0 l/m 30,1 km/h (5 Bft) W-SW22.5 250 0 min 0 min 3,5 C -7,7 C
05.11.2012 05:39 4,2 C 96 % 998 hPa 0,0 l/m 34,0 km/h (5 Bft) W-SW45 255 0 min 0 min 3,6 C -8,5 C
05.11.2012 05:54 4,2 C 96 % 998 hPa 0,0 l/m 31,7 km/h (5 Bft) W-SW45 250 0 min 0 min 3,6 C -7,9 C
05.11.2012 06:09 4,2 C 95 % 998 hPa 0,0 l/m 24,5 km/h (4 Bft) W-SW45 250 0 min 0 min 3,5 C -5,9 C
05.11.2012 06:24 4,1 C 95 % 998 hPa 0,0 l/m 27,9 km/h (4 Bft) W-SW22.5 250 0 min 0 min 3,4 C -7,1 C
05.11.2012 06:39 4,1 C 95 % 998 hPa 0,0 l/m 30,9 km/h (5 Bft) W-SW22.5 255 0 min 0 min 3,4 C -7,9 C
05.11.2012 06:54 4,0 C 95 % 998 hPa 0,0 l/m 30,6 km/h (5 Bft) W22.5 260 0 min 0 min 3,3 C -7,9 C
05.11.2012 07:09 4,1 C 95 % 998 hPa 0,0 l/m 24,8 km/h (4 Bft) W22.5 260 0 min 0 min 3,4 C -6,1 C
05.11.2012 07:24 4,1 C 95 % 998 hPa 0,0 l/m 33,4 km/h (5 Bft) W-SW45 255 0 min 0 min 3,4 C -8,5 C
05.11.2012 07:39 4,1 C 95 % 998 hPa 0,0 l/m 28,4 km/h (4 Bft) W-SW22.5 255 0 min 0 min 3,4 C -7,2 C
05.11.2012 08:00 4,1 C 95 % 998 hPa 0,0 l/m 22,1 km/h (4 Bft) W45 260 0 min 0 min 3,4 C -5,2 C
05.11.2012 08:15 4,2 C 95 % 999 hPa 0,0 l/m 22,7 km/h (4 Bft) W-SW22.5 250 0 min 0 min 3,5 C -5,2 C
05.11.2012 08:30 4,2 C 95 % 999 hPa 0,0 l/m 23,3 km/h (4 Bft) W-SW22.5 255 0 min 0 min 3,5 C -5,5 C
05.11.2012 08:45 4,2 C 95 % 999 hPa 0,0 l/m 23,1 km/h (4 Bft) W22.5 260 0 min 0 min 3,5 C -5,4 C
05.11.2012 09:00 4,2 C 95 % 999 hPa 0,0 l/m 18,3 km/h (3 Bft) W-SW45 245 0 min 0 min 3,5 C -3,5 C
05.11.2012 09:15 4,1 C 95 % 999 hPa 0,0 l/m 27,3 km/h (4 Bft) W-SW22.5 255 0 min 0 min 3,4 C -6,9 C
05.11.2012 09:30 4,1 C 94 % 999 hPa 0,0 l/m 24,3 km/h (4 Bft) W-SW22.5 255 0 min 0 min 3,2 C -5,9 C
05.11.2012 09:45 4,1 C 94 % 999 hPa 0,0 l/m 24,6 km/h (4 Bft) W-SW45 250 0 min 0 min 3,2 C -6,0 C
05.11.2012 10:00 4,4 C 94 % 1000 hPa 0,0 l/m 18,6 km/h (3 Bft) W-SW22.5 250 0 min 0 min 3,5 C -3,4 C
05.11.2012 10:15 4,7 C 94 % 1000 hPa 0,0 l/m 21,5 km/h (4 Bft) W-SW67.5 240 0 min 0 min 3,8 C -4,1 C
05.11.2012 10:30 4,9 C 93 % 1000 hPa 0,0 l/m 18,4 km/h (3 Bft) W45 260 0 min 0 min 3,9 C -2,6 C
05.11.2012 10:45 5,3 C 93 % 1000 hPa 0,0 l/m 22,3 km/h (4 Bft) W-SW45 240 0 min 0 min 4,3 C -3,6 C
05.11.2012 11:00 5,3 C 93 % 1000 hPa 0,0 l/m 19,1 km/h (3 Bft) W-SW22.5 255 0 min 0 min 4,3 C -2,4 C
05.11.2012 11:15 5,3 C 92 % 1000 hPa 0,0 l/m 17,6 km/h (3 Bft) W-SW22.5 250 0 min 0 min 4,1 C -1,8 C
05.11.2012 11:30 5,4 C 92 % 1000 hPa 0,0 l/m 25,5 km/h (4 Bft) W-SW45 245 0 min 0 min 4,2 C -4,6 C
05.11.2012 11:45 5,6 C 92 % 1000 hPa 0,0 l/m 18,3 km/h (3 Bft) W-SW22.5 255 0 min 0 min 4,4 C -1,7 C
05.11.2012 12:01 5,9 C 90 % 1000 hPa 0,0 l/m 23,3 km/h (4 Bft) W-SW22.5 255 0 min 0 min 4,4 C -3,2 C
05.11.2012 12:15 6,3 C 90 % 1000 hPa 0,0 l/m 17,2 km/h (3 Bft) W-SW22.5 255 0 min 0 min 4,8 C -0,4 C
05.11.2012 12:30 6,5 C 88 % 1000 hPa 0,0 l/m 25,6 km/h (4 Bft) W-SW45 255 0 min 0 min 4,7 C -3,1 C
05.11.2012 12:45 6,2 C 87 % 1001 hPa 0,0 l/m 24,3 km/h (4 Bft) W-SW45 255 0 min 0 min 4,2 C -3,1 C
05.11.2012 13:00 6,3 C 88 % 1001 hPa 0,0 l/m 26,5 km/h (4 Bft) W45 265 0 min 0 min 4,5 C -3,6 C
05.11.2012 13:15 6,6 C 86 % 1001 hPa 0,0 l/m 32,6 km/h (5 Bft) W45 260 0 min 0 min 4,4 C -4,7 C
05.11.2012 13:30 6,5 C 84 % 1001 hPa 0,0 l/m 23,3 km/h (4 Bft) W-SW45 250 0 min 0 min 4,0 C -2,4 C
05.11.2012 13:45 6,8 C 85 % 1001 hPa 0,0 l/m 21,6 km/h (4 Bft) W-SW45 250 0 min 0 min 4,5 C -1,4 C
05.11.2012 14:00 6,9 C 83 % 1001 hPa 0,0 l/m 21,8 km/h (4 Bft) W-SW45 250 0 min 0 min 4,2 C -1,4 C
05.11.2012 14:15 6,6 C 84 % 1001 hPa 0,0 l/m 25,3 km/h (4 Bft) W-SW45 250 0 min 0 min 4,1 C -2,9 C
05.11.2012 14:30 6,6 C 83 % 1001 hPa 0,0 l/m 18,8 km/h (3 Bft) W22.5 260 0 min 0 min 3,9 C -0,6 C
05.11.2012 14:45 6,1 C 84 % 1001 hPa 0,0 l/m 14,6 km/h (3 Bft) W-SW22.5 255 0 min 0 min 3,6 C 0,6 C
05.11.2012 15:00 5,5 C 86 % 1001 hPa 0,0 l/m 13,0 km/h (3 Bft) W22.5 260 0 min 0 min 3,3 C 0,7 C
05.11.2012 15:15 5,4 C 88 % 1001 hPa 0,0 l/m 8,1 km/h (2 Bft) W-SW22.5 250 0 min 0 min 3,6 C 3,9 C
05.11.2012 15:30 5,3 C 89 % 1001 hPa 0,0 l/m 1,3 km/h (1 Bft) W-SW 250 0 min 0 min 3,6 C 5,3 C
05.11.2012 15:45 5,3 C 89 % 1001 hPa 0,0 l/m 9,6 km/h (2 Bft) W-SW 250 0 min 0 min 3,6 C 2,7 C
05.11.2012 16:00 5,1 C 90 % 1001 hPa 0,0 l/m 15,5 km/h (3 Bft) W22.5 270 0 min 0 min 3,6 C -1,1 C
05.11.2012 16:16 4,7 C 91 % 1002 hPa 0,0 l/m 13,3 km/h (3 Bft) W22.5 275 0 min 0 min 3,4 C -0,4 C
05.11.2012 16:30 4,3 C 90 % 1002 hPa 0,0 l/m 11,8 km/h (2 Bft) W45 280 0 min 0 min 2,8 C 0,1 C
05.11.2012 16:45 3,6 C 91 % 1002 hPa 0,0 l/m 10,9 km/h (2 Bft) NW45 305 0 min 0 min 2,3 C -0,1 C
05.11.2012 17:00 3,4 C 91 % 1002 hPa 0,0 l/m 9,0 km/h (2 Bft) W22.5 265 0 min 0 min 2,1 C 1,1 C
05.11.2012 17:15 3,1 C 92 % 1003 hPa 0,0 l/m 8,1 km/h (2 Bft) W 265 0 min 0 min 1,9 C 1,5 C
05.11.2012 17:30 3,1 C 92 % 1003 hPa 0,0 l/m 4,1 km/h (1 Bft) W-SW 250 0 min 0 min 1,9 C 3,1 C
05.11.2012 17:46 2,9 C 92 % 1003 hPa 0,0 l/m 0,2 km/h (0 Bft) W-SW 250 0 min 0 min 1,7 C 2,9 C
05.11.2012 18:00 2,9 C 93 % 1003 hPa 0,0 l/m 2,8 km/h (1 Bft) W-SW 255 0 min 0 min 1,9 C 2,9 C
05.11.2012 18:15 2,9 C 93 % 1003 hPa 0,0 l/m 5,2 km/h (1 Bft) W-SW 255 0 min 0 min 1,9 C 2,9 C
05.11.2012 18:30 3,0 C 93 % 1004 hPa 0,0 l/m 0,6 km/h (0 Bft) W-SW 255 0 min 0 min 2,0 C 3,0 C
05.11.2012 18:45 3,0 C 94 % 1004 hPa 0,0 l/m 0,5 km/h (0 Bft) W-SW 255 0 min 0 min 2,1 C 3,0 C
05.11.2012 19:00 3,1 C 94 % 1004 hPa 0,0 l/m 4,9 km/h (1 Bft) W-SW 255 0 min 0 min 2,2 C 3,1 C
05.11.2012 19:16 3,1 C 94 % 1004 hPa 0,0 l/m 3,8 km/h (1 Bft) W 280 0 min 0 min 2,2 C 3,1 C
05.11.2012 19:30 3,1 C 94 % 1005 hPa 0,0 l/m 7,4 km/h (2 Bft) NW45 320 0 min 0 min 2,2 C 2,2 C
05.11.2012 19:45 3,1 C 94 % 1005 hPa 0,0 l/m 0,0 km/h (0 Bft) N-NW 330 0 min 0 min 2,2 C 3,1 C
05.11.2012 20:00 2,9 C 94 % 1005 hPa 0,0 l/m 0,0 km/h (0 Bft) NW 325 0 min 0 min 2,0 C 2,9 C
05.11.2012 20:15 2,8 C 94 % 1005 hPa 0,0 l/m 0,0 km/h (0 Bft) NW 325 0 min 0 min 1,9 C 2,8 C
05.11.2012 20:31 2,7 C 94 % 1005 hPa 0,0 l/m 9,5 km/h (2 Bft) W-NW45 300 0 min 0 min 1,8 C -0,1 C
05.11.2012 20:45 2,5 C 94 % 1006 hPa 0,0 l/m 0,5 km/h (0 Bft) NW 305 0 min 0 min 1,6 C 2,5 C
05.11.2012 21:00 2,3 C 94 % 1006 hPa 0,0 l/m 0,7 km/h (0 Bft) NW 305 0 min 0 min 1,4 C 2,3 C
05.11.2012 21:15 1,9 C 94 % 1006 hPa 0,0 l/m 6,2 km/h (2 Bft) W45 275 0 min 0 min 1,0 C 1,9 C
05.11.2012 21:30 1,5 C 94 % 1007 hPa 0,0 l/m 0,0 km/h (0 Bft) W-SW 250 0 min 0 min 0,6 C 1,5 C
05.11.2012 21:45 1,1 C 94 % 1007 hPa 0,0 l/m 0,4 km/h (0 Bft) W-SW 245 0 min 0 min 0,2 C 1,1 C
05.11.2012 22:01 0,8 C 95 % 1007 hPa 0,0 l/m 6,8 km/h (2 Bft) W22.5 265 0 min 0 min 0,1 C 0,4 C
05.11.2012 22:15 0,8 C 95 % 1007 hPa 0,0 l/m 5,6 km/h (1 Bft) W 260 0 min 0 min 0,1 C 0,8 C
05.11.2012 22:30 0,5 C 95 % 1008 hPa 0,0 l/m 0,1 km/h (0 Bft) W-SW 255 0 min 0 min -0,2 C 0,5 C
05.11.2012 22:45 0,1 C 95 % 1008 hPa 0,0 l/m 0,0 km/h (0 Bft) W-SW 255 0 min 0 min -0,6 C 0,1 C
05.11.2012 23:00 -0,4 C 94 % 1008 hPa 2,7 l/m 0,0 km/h (0 Bft) W-SW 255 0 min 15 min -1,2 C -0,4 C
05.11.2012 23:15 -0,7 C 95 % 1008 hPa 0,0 l/m 0,0 km/h (0 Bft) W-SW 255 0 min 0 min -1,4 C -0,7 C
05.11.2012 23:30 -1,0 C 95 % 1008 hPa 0,0 l/m 0,0 km/h (0 Bft) W-SW 255 0 min 0 min -1,7 C -1,0 C
05.11.2012 23:45 -1,4 C 95 % 1008 hPa 0,0 l/m 0,9 km/h (0 Bft) W-SW 255 0 min 0 min -2,1 C -1,4 C
_ Min-Zeit 23:45 14:00 00:09 - 19:45 - - - - 23:45 01:09
Minimum _ -1,4 C 83 % 997 hPa - 0,0 km/h (0 Bft) - - - - -2,1 C -9,6 C
_ Max-Zeit 14:00 03:39 22:30 23:00 01:09 - - 00:09 23:00 12:15 15:30
Maximum _ 6,9 C 96 % 1008 hPa 2,7 l/m 37,2 km/h
SW (5 Bft)
- - 0 min 15 min 4,8 C 5,3 C
Durchschnitt _ 3,9 C 93 % 1001 hPa #2,7 l/m 18,5 km/h (3 Bft) W-SW - #0 min. #15 min. 2,8 C -3,0 C